Time;durP1;ratioP1;P1;durP2;ratioP2;P2;SDS_P1;SDS_P2;PMS_P1;PMS_P2;Temp;Humidity;BMP_temperature;BMP_pressure;BME280_temperature;BME280_humidity;BME280_pressure;Samples;Min_cycle;Max_cycle;Signal;HPM_P1;HPM_P2
2023/03/22 00:01:59;;;;;;;;;;;18.40;51.40;;;;;;5054162;28;19929;-69
2023/03/22 00:04:25;;;;;;;;;;;18.50;51.50;;;;;;5054016;28;19921;-68
2023/03/22 00:06:51;;;;;;;;;;;18.50;51.50;;;;;;5053795;28;19925;-68
2023/03/22 00:09:17;;;;;;;;;;;18.40;51.50;;;;;;5053831;28;19932;-68
2023/03/22 00:11:42;;;;;;;;;;;18.40;51.50;;;;;;5055047;28;19920;-68
2023/03/22 00:14:08;;;;;;;;;;;18.40;51.50;;;;;;5054924;28;19925;-68
2023/03/22 00:16:34;;;;;;;;;;;18.40;51.50;;;;;;5053866;28;19928;-68
2023/03/22 00:18:59;;;;;;;;;;;18.40;51.50;;;;;;5053830;28;20292;-67
2023/03/22 00:21:25;;;;;;;;;;;18.40;51.50;;;;;;5054297;28;19921;-68
2023/03/22 00:23:50;;;;;;;;;;;18.40;51.50;;;;;;5053761;28;19921;-68
2023/03/22 00:26:16;;;;;;;;;;;18.40;51.50;;;;;;5053399;28;19925;-68
2023/03/22 00:28:42;;;;;;;;;;;18.40;51.50;;;;;;5053377;28;19921;-68
2023/03/22 00:31:08;;;;;;;;;;;18.30;51.40;;;;;;5053580;28;19928;-68
2023/03/22 00:33:34;;;;;;;;;;;18.30;51.40;;;;;;5054596;28;19920;-68
2023/03/22 00:36:01;;;;;;;;;;;18.40;51.50;;;;;;5053500;28;19967;-68
2023/03/22 00:38:35;;;;;;;;;;;18.30;51.50;;;;;;5053108;28;19932;-68
2023/03/22 00:41:03;;;;;;;;;;;18.30;51.50;;;;;;5054750;28;20284;-68
2023/03/22 00:43:29;;;;;;;;;;;18.30;51.50;;;;;;5052482;28;19921;-68
2023/03/22 00:45:54;;;;;;;;;;;18.30;51.50;;;;;;5053019;28;19927;-67
2023/03/22 00:48:21;;;;;;;;;;;18.30;51.50;;;;;;5053496;28;19951;-68
2023/03/22 00:50:46;;;;;;;;;;;18.20;51.40;;;;;;5056172;28;19928;-68
2023/03/22 00:53:12;;;;;;;;;;;18.30;51.50;;;;;;5073800;28;20329;-67
2023/03/22 00:55:37;;;;;;;;;;;18.30;51.50;;;;;;5056486;28;19935;-67
2023/03/22 00:58:03;;;;;;;;;;;18.30;51.50;;;;;;5056012;28;20379;-69
2023/03/22 01:00:30;;;;;;;;;;;18.20;51.40;;;;;;5056120;28;19965;-68
2023/03/22 01:02:58;;;;;;;;;;;18.20;51.50;;;;;;5056204;28;19943;-68
2023/03/22 01:05:24;;;;;;;;;;;18.20;51.50;;;;;;5055974;28;19928;-68
2023/03/22 01:07:49;;;;;;;;;;;18.30;51.50;;;;;;5055861;28;19921;-68
2023/03/22 01:10:15;;;;;;;;;;;18.20;51.50;;;;;;5055800;28;19931;-68
2023/03/22 01:12:41;;;;;;;;;;;18.20;51.50;;;;;;5073731;28;19920;-68
2023/03/22 01:15:07;;;;;;;;;;;18.20;51.50;;;;;;5055805;28;19962;-68
2023/03/22 01:17:35;;;;;;;;;;;18.20;51.50;;;;;;5073753;28;19922;-68
2023/03/22 01:20:01;;;;;;;;;;;18.20;51.50;;;;;;5039088;28;19921;-68
2023/03/22 01:22:26;;;;;;;;;;;18.20;51.50;;;;;;5055548;28;19928;-68
2023/03/22 01:24:52;;;;;;;;;;;18.20;51.50;;;;;;5055647;28;19924;-68
2023/03/22 01:27:17;;;;;;;;;;;18.20;51.50;;;;;;5055437;28;19971;-68
2023/03/22 01:29:43;;;;;;;;;;;18.20;51.50;;;;;;5073380;28;19974;-68
2023/03/22 01:32:08;;;;;;;;;;;18.20;51.50;;;;;;5055789;28;19927;-69
2023/03/22 01:34:34;;;;;;;;;;;18.20;51.50;;;;;;5054862;28;20372;-69
2023/03/22 01:36:59;;;;;;;;;;;18.20;51.50;;;;;;5055634;28;19921;-68
2023/03/22 01:39:26;;;;;;;;;;;18.20;51.50;;;;;;5073134;28;20392;-68
2023/03/22 01:41:51;;;;;;;;;;;18.20;51.50;;;;;;5055665;28;19920;-69
2023/03/22 01:44:20;;;;;;;;;;;18.20;51.50;;;;;;5055502;28;20401;-68
2023/03/22 01:46:47;;;;;;;;;;;18.10;51.40;;;;;;5055193;28;19928;-68
2023/03/22 01:49:14;;;;;;;;;;;18.10;51.50;;;;;;5054939;28;19925;-68
2023/03/22 01:51:41;;;;;;;;;;;18.20;51.50;;;;;;5055062;28;19920;-68
2023/03/22 01:54:13;;;;;;;;;;;18.10;51.50;;;;;;5055450;28;19982;-68
2023/03/22 01:56:40;;;;;;;;;;;18.10;51.80;;;;;;5055044;28;20368;-68
2023/03/22 01:59:06;;;;;;;;;;;18.10;51.50;;;;;;5072956;28;20387;-68
2023/03/22 02:01:32;;;;;;;;;;;18.10;51.50;;;;;;5055001;28;19920;-68
2023/03/22 02:04:01;;;;;;;;;;;18.10;51.50;;;;;;5072746;28;19982;-68
2023/03/22 02:06:28;;;;;;;;;;;18.10;51.50;;;;;;5072803;28;19920;-70
2023/03/22 02:08:56;;;;;;;;;;;18.10;51.30;;;;;;5072512;28;19924;-69
2023/03/22 02:11:26;;;;;;;;;;;18.10;51.40;;;;;;5055078;28;19927;-68
2023/03/22 02:16:45;;;;;;;;;;;18.30;51.50;;;;;;5090049;28;19934;-67
2023/03/22 02:19:31;;;;;;;;;;;18.50;51.10;;;;;;5088503;28;20400;-68
2023/03/22 02:27:22;;;;;;;;;;;19.60;49.10;;;;;;5090004;28;19919;-68
2023/03/22 02:29:55;;;;;;;;;;;20.10;48.00;;;;;;5088780;28;19926;-68
2023/03/22 02:32:40;;;;;;;;;;;20.60;47.10;;;;;;5088610;28;20015;-68
2023/03/22 02:35:26;;;;;;;;;;;21.00;46.10;;;;;;5089653;28;20402;-68
2023/03/22 02:40:47;;;;;;;;;;;21.90;44.60;;;;;;5089867;28;19913;-68
2023/03/22 02:45:55;;;;;;;;;;;22.40;43.30;;;;;;5089795;28;19919;-68
2023/03/22 02:53:46;;;;;;;;;;;22.80;42.30;;;;;;5110253;27;19912;-67
2023/03/22 02:56:15;;;;;;;;;;;22.80;42.20;;;;;;5109207;28;20324;-68
2023/03/22 02:58:45;;;;;;;;;;;22.80;42.10;;;;;;5109223;28;19955;-68
2023/03/22 03:01:18;;;;;;;;;;;22.80;42.10;;;;;;5109115;28;19920;-68
2023/03/22 03:03:49;;;;;;;;;;;22.70;42.20;;;;;;5109100;28;19920;-68
2023/03/22 03:06:17;;;;;;;;;;;22.60;42.30;;;;;;5108706;28;19951;-68
2023/03/22 03:08:45;;;;;;;;;;;22.50;42.40;;;;;;5109201;28;19966;-68
2023/03/22 03:11:14;;;;;;;;;;;22.40;42.70;;;;;;5108542;28;19973;-68
2023/03/22 03:13:39;;;;;;;;;;;22.20;42.80;;;;;;5108990;28;20302;-68
2023/03/22 03:16:06;;;;;;;;;;;22.10;43.00;;;;;;5109808;28;19920;-68
2023/03/22 03:24:08;;;;;;;;;;;21.70;43.60;;;;;;5110367;27;19912;-67
2023/03/22 03:26:46;;;;;;;;;;;21.70;43.80;;;;;;5108839;28;19969;-68
2023/03/22 03:32:03;;;;;;;;;;;21.50;44.10;;;;;;5110213;27;19912;-67
2023/03/22 03:37:13;;;;;;;;;;;21.40;44.10;;;;;;5110195;27;19964;-67
2023/03/22 03:39:43;;;;;;;;;;;21.40;44.20;;;;;;5108974;28;19920;-68
2023/03/22 03:42:11;;;;;;;;;;;21.40;44.20;;;;;;5109131;28;19920;-68
2023/03/22 03:44:37;;;;;;;;;;;21.40;44.10;;;;;;5110582;28;19927;-68
2023/03/22 03:47:04;;;;;;;;;;;21.40;44.00;;;;;;5109074;28;19923;-67
2023/03/22 03:49:29;;;;;;;;;;;21.40;44.00;;;;;;5108697;28;19959;-67
2023/03/22 03:51:55;;;;;;;;;;;21.50;44.00;;;;;;5108885;28;19962;-67
2023/03/22 03:54:21;;;;;;;;;;;21.50;44.00;;;;;;5110016;28;20276;-67
2023/03/22 03:56:47;;;;;;;;;;;21.60;43.90;;;;;;5108574;28;19924;-68
2023/03/22 03:59:14;;;;;;;;;;;21.50;43.80;;;;;;5108842;28;19973;-68
2023/03/22 04:01:40;;;;;;;;;;;21.60;43.80;;;;;;5109229;28;20420;-68
2023/03/22 04:04:09;;;;;;;;;;;21.60;43.70;;;;;;5109691;28;19920;-67
2023/03/22 04:06:34;;;;;;;;;;;21.50;43.60;;;;;;5109805;28;19976;-68
2023/03/22 04:09:00;;;;;;;;;;;21.60;43.50;;;;;;5108671;28;20010;-68
2023/03/22 04:11:26;;;;;;;;;;;21.70;43.50;;;;;;5109799;28;19920;-68
2023/03/22 04:13:54;;;;;;;;;;;21.70;43.50;;;;;;5108579;28;20015;-67
2023/03/22 04:16:20;;;;;;;;;;;21.60;43.50;;;;;;5108235;28;20022;-67
2023/03/22 04:18:45;;;;;;;;;;;21.60;43.60;;;;;;5108427;28;19967;-68
2023/03/22 04:21:15;;;;;;;;;;;21.60;43.70;;;;;;5109627;28;19920;-68
2023/03/22 04:23:40;;;;;;;;;;;21.50;43.70;;;;;;5108498;28;19924;-68
2023/03/22 04:26:06;;;;;;;;;;;21.50;43.80;;;;;;5109601;28;19943;-67
2023/03/22 04:28:32;;;;;;;;;;;21.50;43.80;;;;;;5108587;28;20291;-68
2023/03/22 04:30:58;;;;;;;;;;;21.50;43.70;;;;;;5109544;28;20015;-67
2023/03/22 04:33:25;;;;;;;;;;;21.50;43.70;;;;;;5109244;28;20425;-68
2023/03/22 04:35:55;;;;;;;;;;;21.50;43.60;;;;;;5107734;28;20379;-68
2023/03/22 04:38:21;;;;;;;;;;;21.50;43.60;;;;;;5108999;28;20472;-69
2023/03/22 04:40:46;;;;;;;;;;;21.50;43.60;;;;;;5108150;28;19924;-68
2023/03/22 04:43:12;;;;;;;;;;;21.50;43.50;;;;;;5109117;28;19977;-68
2023/03/22 04:45:38;;;;;;;;;;;21.60;43.60;;;;;;5109043;28;20015;-68
2023/03/22 04:48:03;;;;;;;;;;;21.50;43.60;;;;;;5097869;28;20387;-68
2023/03/22 04:50:29;;;;;;;;;;;21.50;43.50;;;;;;5094152;28;19974;-68
2023/03/22 04:52:54;;;;;;;;;;;21.60;43.50;;;;;;5094378;28;19924;-68
2023/03/22 04:55:20;;;;;;;;;;;21.60;43.70;;;;;;5093853;28;20382;-68
2023/03/22 04:57:45;;;;;;;;;;;21.60;43.50;;;;;;5093951;28;19927;-68
2023/03/22 05:00:11;;;;;;;;;;;21.60;43.50;;;;;;5095218;28;20006;-68
2023/03/22 05:02:39;;;;;;;;;;;21.60;43.50;;;;;;5095088;28;19920;-68
2023/03/22 05:05:05;;;;;;;;;;;21.60;43.40;;;;;;5094025;28;19920;-68
2023/03/22 05:07:30;;;;;;;;;;;21.60;43.50;;;;;;5093860;28;20319;-68
2023/03/22 05:09:56;;;;;;;;;;;21.60;43.30;;;;;;5095085;28;19928;-68
2023/03/22 05:12:21;;;;;;;;;;;21.70;43.30;;;;;;5093749;28;19926;-68
2023/03/22 05:14:47;;;;;;;;;;;21.70;43.20;;;;;;5093819;28;20023;-68
2023/03/22 05:17:12;;;;;;;;;;;21.80;43.20;;;;;;5094836;28;20421;-68
2023/03/22 05:19:41;;;;;;;;;;;21.80;43.10;;;;;;5093750;28;19969;-67
2023/03/22 05:22:06;;;;;;;;;;;21.80;43.10;;;;;;5094602;28;19965;-68
2023/03/22 05:24:32;;;;;;;;;;;21.80;43.00;;;;;;5094898;28;19924;-68
2023/03/22 05:26:59;;;;;;;;;;;21.80;42.90;;;;;;5094585;28;19920;-68
2023/03/22 05:29:26;;;;;;;;;;;21.80;42.90;;;;;;5094604;28;20022;-68
2023/03/22 05:31:51;;;;;;;;;;;21.80;43.60;;;;;;5094513;28;19920;-68
2023/03/22 05:34:20;;;;;;;;;;;21.90;42.90;;;;;;5093519;28;19920;-69
2023/03/22 05:36:46;;;;;;;;;;;21.80;42.80;;;;;;5092782;28;19924;-68
2023/03/22 05:39:14;;;;;;;;;;;21.90;42.80;;;;;;5093044;28;20007;-68
2023/03/22 05:41:40;;;;;;;;;;;21.90;42.80;;;;;;5094310;28;19973;-68
2023/03/22 05:44:05;;;;;;;;;;;21.90;42.80;;;;;;5093332;28;19924;-69
2023/03/22 05:46:31;;;;;;;;;;;21.90;42.80;;;;;;5093154;28;19920;-68
2023/03/22 05:48:56;;;;;;;;;;;21.90;42.80;;;;;;5092876;28;19927;-69
2023/03/22 05:51:24;;;;;;;;;;;21.80;42.80;;;;;;5093046;28;19923;-68
2023/03/22 05:53:50;;;;;;;;;;;21.80;42.80;;;;;;5092855;28;19920;-68
2023/03/22 05:56:16;;;;;;;;;;;21.80;42.80;;;;;;5092777;28;19931;-68
2023/03/22 05:58:41;;;;;;;;;;;21.90;42.90;;;;;;5092998;28;20421;-68
2023/03/22 06:01:10;;;;;;;;;;;21.80;42.80;;;;;;5126677;27;19931;-69
2023/03/22 06:03:36;;;;;;;;;;;21.80;42.70;;;;;;5093923;28;20318;-68
2023/03/22 06:06:05;;;;;;;;;;;21.80;42.70;;;;;;5092511;28;20158;-68
2023/03/22 06:08:32;;;;;;;;;;;21.80;42.70;;;;;;5092897;28;20280;-68
2023/03/22 06:10:58;;;;;;;;;;;21.90;42.80;;;;;;5092663;28;19927;-68
2023/03/22 06:13:24;;;;;;;;;;;21.90;42.80;;;;;;5093765;28;19941;-69
2023/03/22 06:15:49;;;;;;;;;;;21.90;42.70;;;;;;5093669;28;19925;-68
2023/03/22 06:18:15;;;;;;;;;;;21.90;42.70;;;;;;5092325;28;19921;-68
2023/03/22 06:20:41;;;;;;;;;;;21.80;42.70;;;;;;5092561;28;19973;-68
2023/03/22 06:23:06;;;;;;;;;;;21.80;42.70;;;;;;5093736;28;19920;-69
2023/03/22 06:25:32;;;;;;;;;;;21.90;42.80;;;;;;5126290;27;19950;-68
2023/03/22 06:27:57;;;;;;;;;;;21.80;42.70;;;;;;5092156;28;19920;-68
2023/03/22 06:30:23;;;;;;;;;;;21.80;42.80;;;;;;5093733;28;19943;-68
2023/03/22 06:32:48;;;;;;;;;;;21.80;42.80;;;;;;5093323;28;20295;-68
2023/03/22 06:35:14;;;;;;;;;;;21.80;42.80;;;;;;5091878;28;20291;-68
2023/03/22 06:37:40;;;;;;;;;;;21.80;42.80;;;;;;5091639;28;20299;-68
2023/03/22 06:40:06;;;;;;;;;;;21.80;42.70;;;;;;5090364;28;19927;-68
2023/03/22 06:42:32;;;;;;;;;;;21.80;42.70;;;;;;5083801;28;19947;-68
2023/03/22 06:45:01;;;;;;;;;;;21.80;42.70;;;;;;5087131;28;19969;-68
2023/03/22 06:47:26;;;;;;;;;;;21.90;43.00;;;;;;5086644;28;19920;-67
2023/03/22 06:49:52;;;;;;;;;;;21.80;43.30;;;;;;5084722;28;19946;-67
2023/03/22 06:52:17;;;;;;;;;;;21.80;43.50;;;;;;5084950;28;20069;-67
2023/03/22 06:54:43;;;;;;;;;;;21.70;43.60;;;;;;5087465;28;19920;-67
2023/03/22 06:57:09;;;;;;;;;;;21.60;43.80;;;;;;5086523;28;19930;-66
2023/03/22 06:59:34;;;;;;;;;;;21.50;44.00;;;;;;5085367;28;19926;-67
2023/03/22 07:02:00;;;;;;;;;;;21.50;44.10;;;;;;5083873;28;19970;-68
2023/03/22 07:04:26;;;;;;;;;;;21.50;44.30;;;;;;5085434;28;20429;-66
2023/03/22 07:06:52;;;;;;;;;;;21.50;44.40;;;;;;5084819;28;20015;-64
2023/03/22 07:09:18;;;;;;;;;;;21.50;44.50;;;;;;5079322;28;20027;-63
2023/03/22 07:11:43;;;;;;;;;;;21.60;44.50;;;;;;5060508;28;19930;-66
2023/03/22 07:14:09;;;;;;;;;;;21.60;44.40;;;;;;5059255;28;20886;-66
2023/03/22 07:16:38;;;;;;;;;;;21.60;44.40;;;;;;5067509;28;19932;-68
2023/03/22 07:19:03;;;;;;;;;;;21.60;44.70;;;;;;5066510;28;20434;-68
2023/03/22 07:21:29;;;;;;;;;;;21.70;44.50;;;;;;5071236;28;19927;-64
2023/03/22 07:23:54;;;;;;;;;;;21.80;44.30;;;;;;5068119;28;19924;-68
2023/03/22 07:26:20;;;;;;;;;;;21.80;44.30;;;;;;5064876;28;19928;-68
2023/03/22 07:28:45;;;;;;;;;;;21.80;44.20;;;;;;5070370;28;19955;-69
2023/03/22 07:31:11;;;;;;;;;;;21.80;44.70;;;;;;5101802;27;20307;-68
2023/03/22 07:33:37;;;;;;;;;;;21.90;44.80;;;;;;5069112;28;19966;-68
2023/03/22 07:36:04;;;;;;;;;;;21.90;44.80;;;;;;5069168;28;20496;-68
2023/03/22 07:38:29;;;;;;;;;;;21.90;45.00;;;;;;5072670;28;20011;-68
2023/03/22 07:40:55;;;;;;;;;;;21.80;44.90;;;;;;5071032;28;20023;-66
2023/03/22 07:43:21;;;;;;;;;;;21.80;45.10;;;;;;5069761;28;20371;-66
2023/03/22 07:45:48;;;;;;;;;;;21.80;45.00;;;;;;5071494;28;19924;-67
2023/03/22 07:48:14;;;;;;;;;;;21.80;45.00;;;;;;5075060;28;19925;-68
2023/03/22 07:50:40;;;;;;;;;;;21.80;45.00;;;;;;5070388;28;19946;-68
2023/03/22 07:53:06;;;;;;;;;;;21.80;45.10;;;;;;5071367;28;19974;-67
2023/03/22 07:55:31;;;;;;;;;;;21.80;45.20;;;;;;5071236;28;19933;-68
2023/03/22 07:57:57;;;;;;;;;;;21.80;45.90;;;;;;5076969;28;20034;-64
2023/03/22 08:00:22;;;;;;;;;;;21.70;45.10;;;;;;5069598;28;19920;-65
2023/03/22 08:02:48;;;;;;;;;;;21.70;45.00;;;;;;5070905;28;19964;-64
2023/03/22 08:05:14;;;;;;;;;;;21.80;45.10;;;;;;5071451;28;19920;-66
2023/03/22 08:07:40;;;;;;;;;;;21.80;45.00;;;;;;5070207;28;20049;-64
2023/03/22 08:10:05;;;;;;;;;;;21.80;45.00;;;;;;5102864;28;20450;-67
2023/03/22 08:12:31;;;;;;;;;;;21.80;44.80;;;;;;5072787;28;19924;-63
2023/03/22 08:14:56;;;;;;;;;;;21.90;44.90;;;;;;5070030;28;19921;-68
2023/03/22 08:17:22;;;;;;;;;;;21.90;44.90;;;;;;5072184;28;20613;-67
2023/03/22 08:19:48;;;;;;;;;;;21.80;44.80;;;;;;5072584;28;19927;-68
2023/03/22 08:22:14;;;;;;;;;;;21.80;44.80;;;;;;5072626;28;20081;-67
2023/03/22 08:24:40;;;;;;;;;;;21.90;45.00;;;;;;5076059;28;20762;-63
2023/03/22 08:27:06;;;;;;;;;;;21.90;44.80;;;;;;5078928;28;19924;-66
2023/03/22 08:29:31;;;;;;;;;;;21.90;44.80;;;;;;5074003;28;20387;-67
2023/03/22 08:32:00;;;;;;;;;;;21.90;44.60;;;;;;5072660;28;19920;-66
2023/03/22 08:34:27;;;;;;;;;;;22.00;44.80;;;;;;5083659;28;19924;-67
2023/03/22 08:36:53;;;;;;;;;;;21.90;44.60;;;;;;5082569;28;20025;-68
2023/03/22 08:39:18;;;;;;;;;;;21.90;44.70;;;;;;5071253;28;19928;-64
2023/03/22 08:41:44;;;;;;;;;;;22.00;44.70;;;;;;5072394;28;20007;-68
2023/03/22 08:44:09;;;;;;;;;;;21.90;44.50;;;;;;5072157;28;20380;-64
2023/03/22 08:46:35;;;;;;;;;;;22.00;44.90;;;;;;5073769;28;19931;-68
2023/03/22 08:49:01;;;;;;;;;;;21.90;44.40;;;;;;5073475;28;20008;-68
2023/03/22 08:51:27;;;;;;;;;;;21.90;44.40;;;;;;5059830;28;19924;-66
2023/03/22 08:53:52;;;;;;;;;;;21.90;44.30;;;;;;5072134;28;19963;-64
2023/03/22 08:56:19;;;;;;;;;;;22.00;44.40;;;;;;5104039;27;20457;-67
2023/03/22 08:58:47;;;;;;;;;;;21.90;44.20;;;;;;5071229;28;19925;-64
2023/03/22 09:01:13;;;;;;;;;;;22.00;44.20;;;;;;5080560;28;19938;-68
2023/03/22 09:03:42;;;;;;;;;;;21.90;44.40;;;;;;5074646;28;19928;-67
2023/03/22 09:06:12;;;;;;;;;;;21.90;44.20;;;;;;5075066;28;19928;-65
2023/03/22 09:08:37;;;;;;;;;;;21.90;44.20;;;;;;5074838;28;19932;-68
2023/03/22 09:11:03;;;;;;;;;;;22.00;44.20;;;;;;5106310;27;19928;-67
2023/03/22 09:13:29;;;;;;;;;;;21.90;44.50;;;;;;5074839;28;19931;-67
2023/03/22 09:15:56;;;;;;;;;;;21.90;44.70;;;;;;5073271;28;20007;-68
2023/03/22 09:18:23;;;;;;;;;;;21.90;45.00;;;;;;5076053;28;19924;-67
2023/03/22 09:20:49;;;;;;;;;;;21.80;45.10;;;;;;5073682;28;20425;-67
2023/03/22 09:23:15;;;;;;;;;;;21.80;45.20;;;;;;5075960;28;19965;-68
2023/03/22 09:25:42;;;;;;;;;;;21.80;45.20;;;;;;5077731;28;19951;-67
2023/03/22 09:28:11;;;;;;;;;;;21.70;45.30;;;;;;5077300;28;20333;-66
2023/03/22 09:30:37;;;;;;;;;;;21.80;45.20;;;;;;5071534;28;19924;-68
2023/03/22 09:33:03;;;;;;;;;;;21.70;45.10;;;;;;5071392;28;19934;-66
2023/03/22 09:35:29;;;;;;;;;;;21.60;45.20;;;;;;5067390;28;19944;-64
2023/03/22 09:37:55;;;;;;;;;;;21.60;45.50;;;;;;5072902;28;19932;-67
2023/03/22 09:40:24;;;;;;;;;;;21.60;45.40;;;;;;5069841;28;20367;-67
2023/03/22 09:42:51;;;;;;;;;;;21.70;45.40;;;;;;5070629;28;19931;-67
2023/03/22 09:45:21;;;;;;;;;;;21.70;45.30;;;;;;5070222;28;20391;-67
2023/03/22 09:47:50;;;;;;;;;;;21.80;45.10;;;;;;5068968;28;19932;-66
2023/03/22 09:50:21;;;;;;;;;;;21.80;45.20;;;;;;5069795;28;20066;-69
2023/03/22 09:52:47;;;;;;;;;;;21.80;45.20;;;;;;5068608;28;19928;-66
2023/03/22 09:55:17;;;;;;;;;;;21.80;45.20;;;;;;5071668;28;20295;-67
2023/03/22 09:57:44;;;;;;;;;;;21.80;45.10;;;;;;5070588;28;19976;-68
2023/03/22 10:00:15;;;;;;;;;;;21.80;45.20;;;;;;5071694;28;19924;-69
2023/03/22 10:05:38;;;;;;;;;;;21.80;45.10;;;;;;5067557;28;19917;-67
2023/03/22 10:11:00;;;;;;;;;;;21.80;45.10;;;;;;5067019;28;19916;-67
2023/03/22 10:16:10;;;;;;;;;;;21.80;45.80;;;;;;5080506;27;19930;-67
2023/03/22 10:18:40;;;;;;;;;;;21.80;45.10;;;;;;5113816;27;20516;-67
2023/03/22 10:21:08;;;;;;;;;;;21.80;45.10;;;;;;5110575;27;20391;-71
2023/03/22 10:23:36;;;;;;;;;;;21.90;45.10;;;;;;5081199;28;19924;-68
2023/03/22 10:26:03;;;;;;;;;;;21.90;45.00;;;;;;5116095;27;20363;-68
2023/03/22 10:31:16;;;;;;;;;;;21.90;45.00;;;;;;5066360;27;20210;-70
2023/03/22 10:33:49;;;;;;;;;;;21.90;45.10;;;;;;5099180;27;19984;-70
2023/03/22 10:36:15;;;;;;;;;;;21.80;45.10;;;;;;5062763;28;19928;-70
2023/03/22 10:38:49;;;;;;;;;;;21.90;45.40;;;;;;5063970;28;19925;-70
2023/03/22 10:41:17;;;;;;;;;;;21.90;45.60;;;;;;5099643;28;19920;-73
2023/03/22 10:43:44;;;;;;;;;;;21.90;45.50;;;;;;5067888;28;19928;-70
2023/03/22 10:46:14;;;;;;;;;;;21.90;45.50;;;;;;5064695;28;19924;-70
2023/03/22 10:48:42;;;;;;;;;;;21.90;45.60;;;;;;5066818;28;20710;-70
2023/03/22 10:51:10;;;;;;;;;;;21.80;45.70;;;;;;5065834;28;19927;-69
2023/03/22 10:53:38;;;;;;;;;;;21.80;45.80;;;;;;5066619;28;19925;-68
2023/03/22 10:56:04;;;;;;;;;;;21.70;46.00;;;;;;5068796;28;19925;-69
2023/03/22 10:58:31;;;;;;;;;;;21.70;45.90;;;;;;5066646;28;19924;-70
2023/03/22 11:01:01;;;;;;;;;;;21.80;45.90;;;;;;5063044;28;20345;-69
2023/03/22 11:03:36;;;;;;;;;;;21.80;46.00;;;;;;5063806;28;19928;-70
2023/03/22 11:11:25;;;;;;;;;;;21.80;46.10;;;;;;5084433;27;19948;-69
2023/03/22 11:13:57;;;;;;;;;;;21.90;46.20;;;;;;5072974;28;19927;-69
2023/03/22 11:16:23;;;;;;;;;;;21.80;46.30;;;;;;5055966;28;19924;-69
2023/03/22 11:18:49;;;;;;;;;;;21.80;46.40;;;;;;5055153;28;19931;-69
2023/03/22 11:21:16;;;;;;;;;;;21.80;46.40;;;;;;5063141;28;19928;-69
2023/03/22 11:23:47;;;;;;;;;;;21.80;46.20;;;;;;5047996;28;19924;-69
2023/03/22 11:26:23;;;;;;;;;;;21.80;46.20;;;;;;5074726;28;19924;-71
2023/03/22 11:28:49;;;;;;;;;;;21.90;46.30;;;;;;5055585;28;19948;-63
2023/03/22 11:31:17;;;;;;;;;;;21.90;46.30;;;;;;5044686;28;20458;-62
2023/03/22 11:33:59;;;;;;;;;;;21.80;46.20;;;;;;5049775;28;20508;-62
2023/03/22 11:36:25;;;;;;;;;;;21.90;46.30;;;;;;5059691;28;19935;-66
2023/03/22 11:38:59;;;;;;;;;;;21.90;46.50;;;;;;5060416;28;20514;-65
2023/03/22 11:41:29;;;;;;;;;;;21.90;46.40;;;;;;5048094;28;19921;-69
2023/03/22 11:43:56;;;;;;;;;;;21.80;46.50;;;;;;5069412;28;20917;-71
2023/03/22 11:46:23;;;;;;;;;;;21.90;46.30;;;;;;5053050;28;19964;-71
2023/03/22 11:48:50;;;;;;;;;;;21.80;46.50;;;;;;5074579;28;19928;-72
2023/03/22 11:51:17;;;;;;;;;;;21.60;46.50;;;;;;5073054;28;20423;-75
2023/03/22 11:53:45;;;;;;;;;;;21.70;46.60;;;;;;5057976;28;20389;-73
2023/03/22 11:56:14;;;;;;;;;;;21.70;46.60;;;;;;5070312;28;19967;-70
2023/03/22 12:01:26;;;;;;;;;;;21.80;46.60;;;;;;5083158;28;19923;-68
2023/03/22 12:03:54;;;;;;;;;;;21.90;46.50;;;;;;5084312;28;19920;-71
2023/03/22 12:06:30;;;;;;;;;;;21.90;46.60;;;;;;5082971;28;19974;-72
2023/03/22 12:09:03;;;;;;;;;;;21.90;46.30;;;;;;5077066;28;19921;-72
2023/03/22 12:11:32;;;;;;;;;;;21.90;46.20;;;;;;5088323;28;20014;-72
2023/03/22 12:14:00;;;;;;;;;;;21.90;46.20;;;;;;5081313;28;19921;-72
2023/03/22 12:16:29;;;;;;;;;;;21.90;46.20;;;;;;5080419;28;19963;-69
2023/03/22 12:19:05;;;;;;;;;;;21.90;46.20;;;;;;5068570;28;19970;-73
2023/03/22 12:21:31;;;;;;;;;;;21.90;46.10;;;;;;5070115;28;19924;-69
2023/03/22 12:24:00;;;;;;;;;;;22.00;46.10;;;;;;5078269;28;19920;-71
2023/03/22 12:26:26;;;;;;;;;;;22.10;46.10;;;;;;5078246;28;19930;-69
2023/03/22 12:28:55;;;;;;;;;;;22.10;46.00;;;;;;5079938;28;19920;-72
2023/03/22 12:31:23;;;;;;;;;;;22.10;46.00;;;;;;5077359;28;19920;-67
2023/03/22 12:33:52;;;;;;;;;;;22.20;46.10;;;;;;5082163;28;20129;-72
2023/03/22 12:36:28;;;;;;;;;;;22.20;46.10;;;;;;5079599;28;19920;-71
2023/03/22 12:38:55;;;;;;;;;;;22.20;46.20;;;;;;5071266;28;19924;-69
2023/03/22 12:41:25;;;;;;;;;;;22.20;46.30;;;;;;5084956;28;20065;-67
2023/03/22 12:46:34;;;;;;;;;;;22.10;46.50;;;;;;5087274;27;19919;-72
2023/03/22 12:49:02;;;;;;;;;;;22.10;46.60;;;;;;5065041;28;19921;-73
2023/03/22 12:51:28;;;;;;;;;;;22.10;46.70;;;;;;5063935;28;19972;-73
2023/03/22 12:53:55;;;;;;;;;;;22.10;46.80;;;;;;5057773;28;20392;-68
2023/03/22 12:56:23;;;;;;;;;;;22.00;47.20;;;;;;5059831;28;19927;-70
2023/03/22 12:58:50;;;;;;;;;;;22.00;47.30;;;;;;5042208;28;20629;-70
2023/03/22 13:01:36;;;;;;;;;;;21.90;47.30;;;;;;5046831;28;20031;-73
2023/03/22 13:04:21;;;;;;;;;;;21.90;46.80;;;;;;5047516;28;19927;-69
2023/03/22 13:15:24;;;;;;;;;;;21.70;47.10;;;;;;5067376;27;19935;-66
2023/03/22 13:17:49;;;;;;;;;;;21.70;47.10;;;;;;5061996;28;19963;-66
2023/03/22 13:25:42;;;;;;;;;;;21.70;47.20;;;;;;5126624;27;20298;-76
2023/03/22 13:28:25;;;;;;;;;;;21.50;47.20;;;;;;5115249;28;19920;-68
2023/03/22 13:30:51;;;;;;;;;;;21.50;47.30;;;;;;5107842;28;19926;-72
2023/03/22 13:36:05;;;;;;;;;;;21.50;47.60;;;;;;5085937;28;20394;-70
2023/03/22 13:38:36;;;;;;;;;;;21.40;47.50;;;;;;5080082;28;20047;-65
2023/03/22 13:41:06;;;;;;;;;;;21.40;47.60;;;;;;5070102;28;19924;-63
2023/03/22 13:51:41;;;;;;;;;;;21.10;48.20;;;;;;5149869;27;19923;-68
2023/03/22 13:56:58;;;;;;;;;;;21.00;48.40;;;;;;5086379;27;19922;-69
2023/03/22 13:59:28;;;;;;;;;;;20.90;48.50;;;;;;5085729;28;19926;-70
2023/03/22 14:04:52;;;;;;;;;;;20.80;48.80;;;;;;5104415;27;19916;-72
2023/03/22 14:07:21;;;;;;;;;;;20.80;49.00;;;;;;5104820;28;19920;-70
2023/03/22 14:09:48;;;;;;;;;;;20.80;49.20;;;;;;5097781;28;19921;-67
2023/03/22 14:15:03;;;;;;;;;;;20.70;49.40;;;;;;5105902;27;19920;-71
2023/03/22 14:20:13;;;;;;;;;;;20.70;49.60;;;;;;5080137;28;19913;-64
2023/03/22 14:22:42;;;;;;;;;;;20.70;49.50;;;;;;5076327;28;20019;-62
2023/03/22 14:25:12;;;;;;;;;;;20.70;49.50;;;;;;5066358;28;19920;-64
2023/03/22 14:27:39;;;;;;;;;;;20.70;49.60;;;;;;5067763;28;19937;-71
2023/03/22 14:30:05;;;;;;;;;;;20.70;49.60;;;;;;5064111;28;19974;-71
2023/03/22 14:32:32;;;;;;;;;;;20.70;49.60;;;;;;5072140;28;19925;-64
2023/03/22 14:35:09;;;;;;;;;;;20.70;49.60;;;;;;5074871;28;20007;-68
2023/03/22 14:37:35;;;;;;;;;;;20.70;50.60;;;;;;5044576;28;19921;-67
2023/03/22 14:40:12;;;;;;;;;;;20.60;49.70;;;;;;5046460;28;19929;-65
2023/03/22 14:42:37;;;;;;;;;;;20.60;49.90;;;;;;5046003;28;19921;-65
2023/03/22 14:45:06;;;;;;;;;;;20.60;50.40;;;;;;5046513;28;20520;-65
2023/03/22 14:47:39;;;;;;;;;;;20.60;51.20;;;;;;5047054;28;19943;-66
2023/03/22 14:50:08;;;;;;;;;;;20.50;50.90;;;;;;5062809;28;20331;-66
2023/03/22 14:52:35;;;;;;;;;;;20.50;51.00;;;;;;5065888;28;19971;-66
2023/03/22 14:55:02;;;;;;;;;;;20.50;51.20;;;;;;5070046;28;19920;-66
2023/03/22 14:57:30;;;;;;;;;;;20.40;51.10;;;;;;5085732;28;20015;-67
2023/03/22 14:59:56;;;;;;;;;;;20.30;51.10;;;;;;5086678;28;20330;-67
2023/03/22 15:02:39;;;;;;;;;;;20.30;51.20;;;;;;5087064;28;19920;-67
2023/03/22 15:05:06;;;;;;;;;;;20.20;51.10;;;;;;5085959;28;19927;-68
2023/03/22 15:07:41;;;;;;;;;;;20.20;51.10;;;;;;5086402;28;19967;-66
2023/03/22 15:10:11;;;;;;;;;;;20.10;51.20;;;;;;5070006;28;19950;-64
2023/03/22 15:12:41;;;;;;;;;;;20.10;51.20;;;;;;5064734;28;19947;-66
2023/03/22 15:15:07;;;;;;;;;;;20.10;51.40;;;;;;5065762;28;19920;-67
2023/03/22 15:17:36;;;;;;;;;;;20.10;51.40;;;;;;5065109;28;20308;-67
2023/03/22 15:20:04;;;;;;;;;;;20.00;51.30;;;;;;5063293;28;20458;-68
2023/03/22 15:22:30;;;;;;;;;;;20.00;51.50;;;;;;5064340;28;20284;-66
2023/03/22 15:25:00;;;;;;;;;;;19.90;51.40;;;;;;5065560;28;19935;-67
2023/03/22 15:27:27;;;;;;;;;;;19.90;51.40;;;;;;5065792;28;19920;-66
2023/03/22 15:29:53;;;;;;;;;;;19.90;51.50;;;;;;5059576;28;19928;-67
2023/03/22 15:32:21;;;;;;;;;;;19.90;51.50;;;;;;5050091;28;19921;-67
2023/03/22 15:34:47;;;;;;;;;;;19.80;51.50;;;;;;5052359;28;19928;-66
2023/03/22 15:37:32;;;;;;;;;;;19.80;51.50;;;;;;5052795;28;20028;-66
2023/03/22 15:40:00;;;;;;;;;;;19.80;51.50;;;;;;5052602;28;19967;-67
2023/03/22 15:42:30;;;;;;;;;;;19.70;51.50;;;;;;5053091;28;19920;-66
2023/03/22 15:44:59;;;;;;;;;;;19.70;51.50;;;;;;5053175;28;19921;-67
2023/03/22 15:47:27;;;;;;;;;;;19.70;51.60;;;;;;5052695;28;19931;-67